sensor_id;sensor_type;location;lat;lon;timestamp;pressure;altitude;pressure_sealevel;temperature;humidity
15382;BME280;7789;51.364;12.358;2023-03-20T00:00:46;100374.78;;;12.51;97.38
15382;BME280;7789;51.364;12.358;2023-03-20T00:05:49;100379.03;;;12.52;97.15
15382;BME280;7789;51.364;12.358;2023-03-20T00:10:53;100373.06;;;12.50;97.66
15382;BME280;7789;51.364;12.358;2023-03-20T00:16:00;100380.81;;;12.52;97.27
15382;BME280;7789;51.364;12.358;2023-03-20T00:21:04;100367.72;;;12.52;97.53
15382;BME280;7789;51.364;12.358;2023-03-20T00:26:08;100369.38;;;12.53;97.51
15382;BME280;7789;51.364;12.358;2023-03-20T00:31:21;100372.00;;;12.53;97.95
15382;BME280;7789;51.364;12.358;2023-03-20T00:36:26;100361.91;;;12.48;98.11
15382;BME280;7789;51.364;12.358;2023-03-20T00:41:31;100365.09;;;12.42;98.15
15382;BME280;7789;51.364;12.358;2023-03-20T00:46:38;100364.53;;;12.39;98.74
15382;BME280;7789;51.364;12.358;2023-03-20T00:51:41;100367.81;;;12.31;98.97
15382;BME280;7789;51.364;12.358;2023-03-20T00:56:48;100365.63;;;12.27;99.13
15382;BME280;7789;51.364;12.358;2023-03-20T01:01:59;100367.13;;;12.20;98.96
15382;BME280;7789;51.364;12.358;2023-03-20T01:07:04;100371.56;;;12.19;98.70
15382;BME280;7789;51.364;12.358;2023-03-20T01:12:09;100366.16;;;12.21;98.75
15382;BME280;7789;51.364;12.358;2023-03-20T01:17:17;100365.06;;;12.23;98.71
15382;BME280;7789;51.364;12.358;2023-03-20T01:22:21;100371.13;;;12.24;99.25
15382;BME280;7789;51.364;12.358;2023-03-20T01:27:24;100372.25;;;12.21;99.49
15382;BME280;7789;51.364;12.358;2023-03-20T01:32:34;100380.78;;;12.23;99.80
15382;BME280;7789;51.364;12.358;2023-03-20T01:37:38;100369.75;;;12.20;99.33
15382;BME280;7789;51.364;12.358;2023-03-20T01:42:42;100375.16;;;12.18;100.00
15382;BME280;7789;51.364;12.358;2023-03-20T01:47:47;100369.44;;;12.13;100.00
15382;BME280;7789;51.364;12.358;2023-03-20T01:52:59;100373.59;;;12.06;100.00
15382;BME280;7789;51.364;12.358;2023-03-20T01:58:07;100378.00;;;12.06;100.00
15382;BME280;7789;51.364;12.358;2023-03-20T02:03:15;100374.84;;;12.02;100.00
15382;BME280;7789;51.364;12.358;2023-03-20T02:08:23;100377.56;;;12.01;100.00
15382;BME280;7789;51.364;12.358;2023-03-20T02:13:30;100382.25;;;11.97;100.00
15382;BME280;7789;51.364;12.358;2023-03-20T02:18:35;100374.66;;;11.94;100.00
15382;BME280;7789;51.364;12.358;2023-03-20T02:23:56;100379.31;;;11.91;100.00
15382;BME280;7789;51.364;12.358;2023-03-20T02:35:13;100377.81;;;11.88;100.00
15382;BME280;7789;51.364;12.358;2023-03-20T02:40:33;100368.56;;;11.84;100.00
15382;BME280;7789;51.364;12.358;2023-03-20T02:45:48;100370.22;;;11.85;100.00
15382;BME280;7789;51.364;12.358;2023-03-20T02:50:58;100363.75;;;11.89;100.00
15382;BME280;7789;51.364;12.358;2023-03-20T02:56:11;100370.53;;;11.92;100.00
15382;BME280;7789;51.364;12.358;2023-03-20T03:01:22;100373.00;;;11.93;100.00
15382;BME280;7789;51.364;12.358;2023-03-20T03:06:30;100363.47;;;11.92;100.00
15382;BME280;7789;51.364;12.358;2023-03-20T03:11:39;100368.59;;;11.94;100.00
15382;BME280;7789;51.364;12.358;2023-03-20T03:16:46;100372.03;;;11.94;100.00
15382;BME280;7789;51.364;12.358;2023-03-20T03:21:51;100375.91;;;11.90;100.00
15382;BME280;7789;51.364;12.358;2023-03-20T03:26:56;100377.41;;;11.83;100.00
15382;BME280;7789;51.364;12.358;2023-03-20T03:32:02;100370.06;;;11.77;100.00
15382;BME280;7789;51.364;12.358;2023-03-20T03:37:13;100374.59;;;11.75;100.00
15382;BME280;7789;51.364;12.358;2023-03-20T03:42:26;100383.41;;;11.74;100.00
15382;BME280;7789;51.364;12.358;2023-03-20T03:47:38;100391.00;;;11.77;100.00
15382;BME280;7789;51.364;12.358;2023-03-20T03:52:44;100390.75;;;11.80;100.00
15382;BME280;7789;51.364;12.358;2023-03-20T03:57:54;100393.34;;;11.80;100.00
15382;BME280;7789;51.364;12.358;2023-03-20T04:02:59;100395.16;;;11.80;100.00
15382;BME280;7789;51.364;12.358;2023-03-20T04:08:04;100388.97;;;11.81;100.00
15382;BME280;7789;51.364;12.358;2023-03-20T04:13:09;100387.41;;;11.78;100.00
15382;BME280;7789;51.364;12.358;2023-03-20T04:18:14;100394.59;;;11.76;100.00
15382;BME280;7789;51.364;12.358;2023-03-20T04:23:18;100401.63;;;11.76;100.00
15382;BME280;7789;51.364;12.358;2023-03-20T04:28:22;100406.88;;;11.76;100.00
15382;BME280;7789;51.364;12.358;2023-03-20T04:33:26;100408.66;;;11.75;100.00
15382;BME280;7789;51.364;12.358;2023-03-20T04:38:29;100410.31;;;11.76;100.00
15382;BME280;7789;51.364;12.358;2023-03-20T04:43:34;100424.34;;;11.75;100.00
15382;BME280;7789;51.364;12.358;2023-03-20T04:48:37;100426.16;;;11.75;100.00
15382;BME280;7789;51.364;12.358;2023-03-20T04:53:41;100426.00;;;11.76;100.00
15382;BME280;7789;51.364;12.358;2023-03-20T04:58:45;100430.97;;;11.79;100.00
15382;BME280;7789;51.364;12.358;2023-03-20T05:03:49;100433.59;;;11.79;100.00
15382;BME280;7789;51.364;12.358;2023-03-20T05:08:52;100442.16;;;11.81;100.00
15382;BME280;7789;51.364;12.358;2023-03-20T05:13:58;100438.84;;;11.79;100.00
15382;BME280;7789;51.364;12.358;2023-03-20T05:19:02;100438.16;;;11.77;100.00
15382;BME280;7789;51.364;12.358;2023-03-20T05:24:06;100448.63;;;11.77;100.00
15382;BME280;7789;51.364;12.358;2023-03-20T05:29:11;100450.28;;;11.78;100.00
15382;BME280;7789;51.364;12.358;2023-03-20T05:34:14;100448.78;;;11.76;100.00
15382;BME280;7789;51.364;12.358;2023-03-20T05:39:17;100449.31;;;11.79;100.00
15382;BME280;7789;51.364;12.358;2023-03-20T05:44:22;100452.41;;;11.84;100.00
15382;BME280;7789;51.364;12.358;2023-03-20T05:49:27;100453.41;;;11.93;100.00
15382;BME280;7789;51.364;12.358;2023-03-20T05:54:47;100460.44;;;12.02;100.00
15382;BME280;7789;51.364;12.358;2023-03-20T06:00:10;100457.03;;;12.01;100.00
15382;BME280;7789;51.364;12.358;2023-03-20T06:05:14;100466.00;;;12.08;100.00
15382;BME280;7789;51.364;12.358;2023-03-20T06:10:17;100465.72;;;12.11;100.00
15382;BME280;7789;51.364;12.358;2023-03-20T06:15:23;100473.31;;;12.14;100.00
15382;BME280;7789;51.364;12.358;2023-03-20T06:20:26;100472.13;;;12.18;100.00
15382;BME280;7789;51.364;12.358;2023-03-20T06:25:29;100484.09;;;12.21;100.00
15382;BME280;7789;51.364;12.358;2023-03-20T06:30:41;100480.97;;;12.27;100.00
15382;BME280;7789;51.364;12.358;2023-03-20T06:35:44;100487.44;;;12.32;100.00
15382;BME280;7789;51.364;12.358;2023-03-20T06:40:58;100488.72;;;12.38;100.00
15382;BME280;7789;51.364;12.358;2023-03-20T06:46:11;100486.09;;;12.38;100.00
15382;BME280;7789;51.364;12.358;2023-03-20T06:51:21;100495.22;;;12.43;100.00
15382;BME280;7789;51.364;12.358;2023-03-20T06:56:24;100500.19;;;12.46;100.00
15382;BME280;7789;51.364;12.358;2023-03-20T07:01:32;100515.41;;;12.52;100.00
15382;BME280;7789;51.364;12.358;2023-03-20T07:06:35;100511.25;;;12.59;100.00
15382;BME280;7789;51.364;12.358;2023-03-20T07:11:39;100511.56;;;12.66;100.00
15382;BME280;7789;51.364;12.358;2023-03-20T07:16:48;100517.91;;;12.73;100.00
15382;BME280;7789;51.364;12.358;2023-03-20T07:21:58;100527.72;;;12.80;100.00
15382;BME280;7789;51.364;12.358;2023-03-20T07:27:03;100535.19;;;12.85;100.00
15382;BME280;7789;51.364;12.358;2023-03-20T07:32:10;100537.44;;;12.89;100.00
15382;BME280;7789;51.364;12.358;2023-03-20T07:37:14;100537.28;;;12.90;100.00
15382;BME280;7789;51.364;12.358;2023-03-20T07:42:18;100534.97;;;12.97;100.00
15382;BME280;7789;51.364;12.358;2023-03-20T07:47:22;100529.19;;;13.03;100.00
15382;BME280;7789;51.364;12.358;2023-03-20T07:52:27;100528.34;;;13.12;100.00
15382;BME280;7789;51.364;12.358;2023-03-20T07:57:31;100525.88;;;13.20;100.00
15382;BME280;7789;51.364;12.358;2023-03-20T08:02:36;100524.22;;;13.28;100.00
15382;BME280;7789;51.364;12.358;2023-03-20T08:07:40;100519.94;;;13.37;100.00
15382;BME280;7789;51.364;12.358;2023-03-20T08:12:47;100519.94;;;13.46;100.00
15382;BME280;7789;51.364;12.358;2023-03-20T08:17:52;100522.66;;;13.54;100.00
15382;BME280;7789;51.364;12.358;2023-03-20T08:22:55;100523.75;;;13.61;100.00
15382;BME280;7789;51.364;12.358;2023-03-20T08:27:59;100534.53;;;13.68;100.00
15382;BME280;7789;51.364;12.358;2023-03-20T08:33:05;100524.00;;;13.77;100.00
15382;BME280;7789;51.364;12.358;2023-03-20T08:38:10;100522.31;;;13.86;100.00
15382;BME280;7789;51.364;12.358;2023-03-20T08:43:14;100534.47;;;14.06;100.00
15382;BME280;7789;51.364;12.358;2023-03-20T08:48:19;100528.94;;;13.99;100.00
15382;BME280;7789;51.364;12.358;2023-03-20T08:53:22;100556.03;;;14.00;100.00
15382;BME280;7789;51.364;12.358;2023-03-20T08:58:26;100554.78;;;14.04;100.00
15382;BME280;7789;51.364;12.358;2023-03-20T09:03:31;100552.91;;;13.96;100.00
15382;BME280;7789;51.364;12.358;2023-03-20T09:08:34;100568.66;;;13.96;100.00
15382;BME280;7789;51.364;12.358;2023-03-20T09:13:37;100568.41;;;13.90;100.00
15382;BME280;7789;51.364;12.358;2023-03-20T09:18:42;100566.88;;;13.78;100.00
15382;BME280;7789;51.364;12.358;2023-03-20T09:23:46;100571.19;;;13.69;100.00
15382;BME280;7789;51.364;12.358;2023-03-20T09:28:49;100581.28;;;13.64;100.00
15382;BME280;7789;51.364;12.358;2023-03-20T09:33:53;100576.72;;;13.66;100.00
15382;BME280;7789;51.364;12.358;2023-03-20T09:38:57;100582.69;;;13.59;100.00
15382;BME280;7789;51.364;12.358;2023-03-20T09:44:08;100583.94;;;13.64;100.00
15382;BME280;7789;51.364;12.358;2023-03-20T09:49:25;100585.72;;;13.64;100.00
15382;BME280;7789;51.364;12.358;2023-03-20T09:54:37;100586.25;;;13.67;100.00
15382;BME280;7789;51.364;12.358;2023-03-20T09:59:57;100584.44;;;13.68;100.00
15382;BME280;7789;51.364;12.358;2023-03-20T10:05:03;100584.44;;;13.68;100.00
15382;BME280;7789;51.364;12.358;2023-03-20T10:10:16;100585.59;;;13.65;100.00
15382;BME280;7789;51.364;12.358;2023-03-20T10:15:34;100579.47;;;13.74;100.00
15382;BME280;7789;51.364;12.358;2023-03-20T10:20:42;100566.88;;;13.78;100.00
15382;BME280;7789;51.364;12.358;2023-03-20T10:25:53;100572.81;;;13.80;100.00
15382;BME280;7789;51.364;12.358;2023-03-20T10:31:08;100570.47;;;13.86;100.00
15382;BME280;7789;51.364;12.358;2023-03-20T10:36:34;100566.75;;;13.89;100.00
15382;BME280;7789;51.364;12.358;2023-03-20T10:41:48;100570.47;;;13.86;100.00
15382;BME280;7789;51.364;12.358;2023-03-20T10:46:54;100568.41;;;13.90;100.00
15382;BME280;7789;51.364;12.358;2023-03-20T10:52:02;100564.25;;;13.87;100.00
15382;BME280;7789;51.364;12.358;2023-03-20T10:57:12;100564.94;;;13.80;100.00
15382;BME280;7789;51.364;12.358;2023-03-20T11:02:19;100567.56;;;13.80;100.00
15382;BME280;7789;51.364;12.358;2023-03-20T11:07:30;100568.84;;;13.76;100.00
15382;BME280;7789;51.364;12.358;2023-03-20T11:12:36;100563.56;;;13.76;100.00
15382;BME280;7789;51.364;12.358;2023-03-20T11:17:40;100567.31;;;13.73;100.00
15382;BME280;7789;51.364;12.358;2023-03-20T11:22:46;100563.19;;;13.71;100.00
15382;BME280;7789;51.364;12.358;2023-03-20T11:27:50;100569.66;;;13.67;100.00
15382;BME280;7789;51.364;12.358;2023-03-20T11:32:58;100563.03;;;13.63;100.00
15382;BME280;7789;51.364;12.358;2023-03-20T11:38:13;100568.00;;;13.66;100.00
15382;BME280;7789;51.364;12.358;2023-03-20T11:43:18;100564.84;;;13.72;100.00
15382;BME280;7789;51.364;12.358;2023-03-20T11:48:24;100551.53;;;13.83;100.00
15382;BME280;7789;51.364;12.358;2023-03-20T11:53:30;100553.72;;;13.87;100.00
15382;BME280;7789;51.364;12.358;2023-03-20T11:58:36;100546.66;;;13.97;100.00
15382;BME280;7789;51.364;12.358;2023-03-20T12:03:46;100550.06;;;14.07;100.00
15382;BME280;7789;51.364;12.358;2023-03-20T12:08:57;100540.81;;;14.03;100.00
15382;BME280;7789;51.364;12.358;2023-03-20T12:14:05;100542.34;;;14.06;100.00
15382;BME280;7789;51.364;12.358;2023-03-20T12:19:12;100538.06;;;14.05;100.00
15382;BME280;7789;51.364;12.358;2023-03-20T12:24:26;100529.47;;;14.03;100.00
15382;BME280;7789;51.364;12.358;2023-03-20T12:29:39;100519.78;;;14.03;100.00
15382;BME280;7789;51.364;12.358;2023-03-20T12:34:48;100517.41;;;14.10;100.00
15382;BME280;7789;51.364;12.358;2023-03-20T12:39:55;100512.28;;;14.08;100.00
15382;BME280;7789;51.364;12.358;2023-03-20T12:45:03;100515.47;;;14.12;100.00
15382;BME280;7789;51.364;12.358;2023-03-20T12:50:16;100511.59;;;14.16;100.00
15382;BME280;7789;51.364;12.358;2023-03-20T12:55:29;100496.66;;;14.16;100.00
15382;BME280;7789;51.364;12.358;2023-03-20T13:00:39;100489.59;;;14.17;100.00
15382;BME280;7789;51.364;12.358;2023-03-20T13:05:49;100488.34;;;14.11;100.00
15382;BME280;7789;51.364;12.358;2023-03-20T13:11:12;100486.69;;;14.10;100.00
15382;BME280;7789;51.364;12.358;2023-03-20T13:16:25;100485.19;;;14.08;100.00
15382;BME280;7789;51.364;12.358;2023-03-20T13:21:38;100474.78;;;14.16;100.00
15382;BME280;7789;51.364;12.358;2023-03-20T13:26:52;100468.09;;;14.31;100.00
15382;BME280;7789;51.364;12.358;2023-03-20T13:32:06;100461.97;;;14.57;100.00
15382;BME280;7789;51.364;12.358;2023-03-20T13:37:17;100458.09;;;14.79;100.00
15382;BME280;7789;51.364;12.358;2023-03-20T13:42:30;100452.44;;;14.91;100.00
15382;BME280;7789;51.364;12.358;2023-03-20T13:47:36;100447.03;;;14.92;100.00
15382;BME280;7789;51.364;12.358;2023-03-20T13:52:44;100440.72;;;15.03;100.00
15382;BME280;7789;51.364;12.358;2023-03-20T13:58:08;100433.69;;;15.11;100.00
15382;BME280;7789;51.364;12.358;2023-03-20T14:03:19;100426.34;;;15.15;100.00
15382;BME280;7789;51.364;12.358;2023-03-20T14:08:33;100422.75;;;15.24;100.00
15382;BME280;7789;51.364;12.358;2023-03-20T14:13:43;100418.63;;;15.21;99.13
15382;BME280;7789;51.364;12.358;2023-03-20T14:18:49;100423.59;;;15.24;98.67
15382;BME280;7789;51.364;12.358;2023-03-20T14:23:59;100414.41;;;15.28;98.39
15382;BME280;7789;51.364;12.358;2023-03-20T14:29:36;100406.75;;;15.35;97.23
15382;BME280;7789;51.364;12.358;2023-03-20T14:34:47;100391.16;;;15.41;96.81
15382;BME280;7789;51.364;12.358;2023-03-20T14:39:53;100394.94;;;15.47;94.91
15382;BME280;7789;51.364;12.358;2023-03-20T14:50:40;100393.19;;;15.55;93.87
15382;BME280;7789;51.364;12.358;2023-03-20T14:56:04;100393.19;;;15.55;91.88
15382;BME280;7789;51.364;12.358;2023-03-20T15:01:14;100391.13;;;15.67;92.74
15382;BME280;7789;51.364;12.358;2023-03-20T15:06:24;100385.03;;;15.74;92.27
15382;BME280;7789;51.364;12.358;2023-03-20T15:11:28;100380.75;;;15.73;91.54
15382;BME280;7789;51.364;12.358;2023-03-20T15:16:35;100381.75;;;15.72;91.62
15382;BME280;7789;51.364;12.358;2023-03-20T15:21:40;100375.97;;;15.69;91.57
15382;BME280;7789;51.364;12.358;2023-03-20T15:26:46;100369.53;;;15.63;91.29
15382;BME280;7789;51.364;12.358;2023-03-20T15:31:55;100375.72;;;15.54;91.86
15382;BME280;7789;51.364;12.358;2023-03-20T15:37:18;100367.59;;;15.40;91.72
15382;BME280;7789;51.364;12.358;2023-03-20T15:42:24;100384.56;;;15.20;92.17
15382;BME280;7789;51.364;12.358;2023-03-20T15:47:28;100358.31;;;15.10;93.61
15382;BME280;7789;51.364;12.358;2023-03-20T15:52:38;100370.06;;;14.98;94.06
15382;BME280;7789;51.364;12.358;2023-03-20T15:57:44;100372.25;;;14.85;94.97
15382;BME280;7789;51.364;12.358;2023-03-20T16:02:51;100380.84;;;14.70;96.50
15382;BME280;7789;51.364;12.358;2023-03-20T16:07:56;100375.22;;;14.65;96.96
15382;BME280;7789;51.364;12.358;2023-03-20T16:13:00;100379.28;;;14.60;97.11
15382;BME280;7789;51.364;12.358;2023-03-20T16:18:05;100386.66;;;14.56;97.06
15382;BME280;7789;51.364;12.358;2023-03-20T16:23:21;100383.47;;;14.53;97.65
15382;BME280;7789;51.364;12.358;2023-03-20T16:28:26;100383.66;;;14.51;95.78
15382;BME280;7789;51.364;12.358;2023-03-20T16:33:30;100374.69;;;14.44;94.64
15382;BME280;7789;51.364;12.358;2023-03-20T16:38:35;100376.94;;;14.39;94.08
15382;BME280;7789;51.364;12.358;2023-03-20T16:43:39;100383.19;;;14.38;94.35
15382;BME280;7789;51.364;12.358;2023-03-20T16:48:42;100382.81;;;14.33;94.36
15382;BME280;7789;51.364;12.358;2023-03-20T16:53:48;100385.34;;;14.25;94.63
15382;BME280;7789;51.364;12.358;2023-03-20T16:58:52;100379.84;;;14.19;94.98
15382;BME280;7789;51.364;12.358;2023-03-20T17:04:12;100376.00;;;14.13;94.70
15382;BME280;7789;51.364;12.358;2023-03-20T17:09:22;100382.66;;;14.08;95.87
15382;BME280;7789;51.364;12.358;2023-03-20T17:14:26;100390.44;;;14.00;96.54
15382;BME280;7789;51.364;12.358;2023-03-20T17:19:31;100389.38;;;13.93;96.21
15382;BME280;7789;51.364;12.358;2023-03-20T17:24:36;100392.06;;;13.83;96.77
15382;BME280;7789;51.364;12.358;2023-03-20T17:29:39;100404.56;;;13.72;97.74
15382;BME280;7789;51.364;12.358;2023-03-20T17:34:43;100407.22;;;13.62;98.16
15382;BME280;7789;51.364;12.358;2023-03-20T17:39:48;100398.53;;;13.52;98.95
15382;BME280;7789;51.364;12.358;2023-03-20T17:44:52;100413.22;;;13.45;99.00
15382;BME280;7789;51.364;12.358;2023-03-20T17:49:55;100405.22;;;13.37;99.53
15382;BME280;7789;51.364;12.358;2023-03-20T17:55:00;100412.69;;;13.32;99.73
15382;BME280;7789;51.364;12.358;2023-03-20T18:00:05;100412.13;;;13.29;100.00
15382;BME280;7789;51.364;12.358;2023-03-20T18:05:09;100419.34;;;13.27;100.00
15382;BME280;7789;51.364;12.358;2023-03-20T18:10:22;100420.16;;;13.27;100.00
15382;BME280;7789;51.364;12.358;2023-03-20T18:15:27;100429.28;;;13.23;100.00
15382;BME280;7789;51.364;12.358;2023-03-20T18:20:33;100440.47;;;13.16;100.00
15382;BME280;7789;51.364;12.358;2023-03-20T18:25:39;100423.78;;;13.07;100.00
15382;BME280;7789;51.364;12.358;2023-03-20T18:30:42;100428.75;;;13.01;100.00
15382;BME280;7789;51.364;12.358;2023-03-20T18:35:46;100437.59;;;13.00;100.00
15382;BME280;7789;51.364;12.358;2023-03-20T18:40:51;100436.22;;;12.96;100.00
15382;BME280;7789;51.364;12.358;2023-03-20T18:45:54;100429.31;;;12.95;100.00
15382;BME280;7789;51.364;12.358;2023-03-20T18:50:57;100428.88;;;12.90;100.00
15382;BME280;7789;51.364;12.358;2023-03-20T18:56:11;100432.31;;;12.81;100.00
15382;BME280;7789;51.364;12.358;2023-03-20T19:01:16;100437.84;;;12.78;100.00
15382;BME280;7789;51.364;12.358;2023-03-20T19:06:21;100436.59;;;12.73;100.00
15382;BME280;7789;51.364;12.358;2023-03-20T19:11:26;100434.81;;;12.73;100.00
15382;BME280;7789;51.364;12.358;2023-03-20T19:16:31;100432.47;;;12.70;100.00
15382;BME280;7789;51.364;12.358;2023-03-20T19:21:41;100434.41;;;12.68;100.00
15382;BME280;7789;51.364;12.358;2023-03-20T19:26:56;100445.16;;;12.65;100.00
15382;BME280;7789;51.364;12.358;2023-03-20T19:32:00;100420.84;;;12.63;100.00
15382;BME280;7789;51.364;12.358;2023-03-20T19:37:03;100432.69;;;12.48;100.00
15382;BME280;7789;51.364;12.358;2023-03-20T19:42:12;100431.47;;;12.43;100.00
15382;BME280;7789;51.364;12.358;2023-03-20T19:47:35;100432.28;;;12.34;100.00
15382;BME280;7789;51.364;12.358;2023-03-20T19:52:40;100434.47;;;12.29;100.00
15382;BME280;7789;51.364;12.358;2023-03-20T19:57:45;100426.72;;;12.27;100.00
15382;BME280;7789;51.364;12.358;2023-03-20T20:02:49;100419.97;;;12.25;100.00
15382;BME280;7789;51.364;12.358;2023-03-20T20:07:54;100421.06;;;12.22;100.00
15382;BME280;7789;51.364;12.358;2023-03-20T20:13:22;100411.69;;;12.20;100.00
15382;BME280;7789;51.364;12.358;2023-03-20T20:18:33;100409.72;;;12.12;100.00
15382;BME280;7789;51.364;12.358;2023-03-20T20:23:39;100419.53;;;12.10;100.00
15382;BME280;7789;51.364;12.358;2023-03-20T20:28:46;100412.91;;;12.16;100.00
15382;BME280;7789;51.364;12.358;2023-03-20T20:33:49;100417.31;;;12.15;100.00
15382;BME280;7789;51.364;12.358;2023-03-20T20:39:22;100409.34;;;12.17;100.00
15382;BME280;7789;51.364;12.358;2023-03-20T20:44:27;100409.47;;;12.15;100.00
15382;BME280;7789;51.364;12.358;2023-03-20T20:49:31;100417.88;;;12.09;100.00
15382;BME280;7789;51.364;12.358;2023-03-20T20:54:35;100424.47;;;12.04;100.00
15382;BME280;7789;51.364;12.358;2023-03-20T20:59:40;100428.88;;;12.03;100.00
15382;BME280;7789;51.364;12.358;2023-03-20T21:04:43;100427.34;;;12.01;100.00
15382;BME280;7789;51.364;12.358;2023-03-20T21:09:49;100432.03;;;11.97;100.00
15382;BME280;7789;51.364;12.358;2023-03-20T21:14:54;100434.63;;;11.97;100.00
15382;BME280;7789;51.364;12.358;2023-03-20T21:19:57;100444.16;;;11.98;100.00
15382;BME280;7789;51.364;12.358;2023-03-20T21:25:01;100439.63;;;12.00;100.00
15382;BME280;7789;51.364;12.358;2023-03-20T21:30:17;100439.38;;;12.03;100.00
15382;BME280;7789;51.364;12.358;2023-03-20T21:35:22;100456.75;;;12.04;100.00
15382;BME280;7789;51.364;12.358;2023-03-20T21:40:27;100458.25;;;12.07;100.00
15382;BME280;7789;51.364;12.358;2023-03-20T21:45:32;100453.00;;;12.07;100.00
15382;BME280;7789;51.364;12.358;2023-03-20T21:50:57;100455.78;;;12.05;100.00
15382;BME280;7789;51.364;12.358;2023-03-20T21:56:21;100447.22;;;12.03;100.00
15382;BME280;7789;51.364;12.358;2023-03-20T22:01:49;100449.97;;;12.02;100.00
15382;BME280;7789;51.364;12.358;2023-03-20T22:07:13;100458.78;;;12.01;100.00
15382;BME280;7789;51.364;12.358;2023-03-20T22:12:37;100457.25;;;11.98;100.00
15382;BME280;7789;51.364;12.358;2023-03-20T22:18:02;100452.16;;;11.97;100.00
15382;BME280;7789;51.364;12.358;2023-03-20T22:23:28;100466.91;;;11.98;100.00
15382;BME280;7789;51.364;12.358;2023-03-20T22:28:52;100468.97;;;11.94;100.00
15382;BME280;7789;51.364;12.358;2023-03-20T22:34:19;100468.28;;;11.92;100.00
15382;BME280;7789;51.364;12.358;2023-03-20T22:39:44;100468.38;;;11.91;100.00
15382;BME280;7789;51.364;12.358;2023-03-20T22:45:08;100473.78;;;11.89;100.00
15382;BME280;7789;51.364;12.358;2023-03-20T22:55:23;100469.19;;;11.82;100.00
15382;BME280;7789;51.364;12.358;2023-03-20T23:00:26;100466.00;;;11.78;100.00
15382;BME280;7789;51.364;12.358;2023-03-20T23:05:36;100462.69;;;11.76;100.00
15382;BME280;7789;51.364;12.358;2023-03-20T23:10:41;100461.88;;;11.76;100.00
15382;BME280;7789;51.364;12.358;2023-03-20T23:15:46;100466.38;;;11.74;100.00
15382;BME280;7789;51.364;12.358;2023-03-20T23:20:56;100466.38;;;11.74;100.00
15382;BME280;7789;51.364;12.358;2023-03-20T23:26:01;100464.88;;;11.71;100.00
15382;BME280;7789;51.364;12.358;2023-03-20T23:31:06;100461.56;;;11.69;100.00
15382;BME280;7789;51.364;12.358;2023-03-20T23:36:13;100466.91;;;11.68;100.00
15382;BME280;7789;51.364;12.358;2023-03-20T23:41:36;100468.84;;;11.66;100.00
15382;BME280;7789;51.364;12.358;2023-03-20T23:46:59;100461.50;;;11.60;100.00
15382;BME280;7789;51.364;12.358;2023-03-20T23:52:16;100466.84;;;11.58;100.00
15382;BME280;7789;51.364;12.358;2023-03-20T23:57:19;100470.44;;;11.57;100.00
